sensor_id;sensor_type;location;lat;lon;timestamp;temperature;humidity
15341;DHT22;7770;52.158;5.372;2023-04-15T00:02:21;8.80;99.90
15341;DHT22;7770;52.158;5.372;2023-04-15T00:05:07;8.80;99.90
15341;DHT22;7770;52.158;5.372;2023-04-15T00:07:55;8.70;99.90
15341;DHT22;7770;52.158;5.372;2023-04-15T00:10:40;8.70;99.90
15341;DHT22;7770;52.158;5.372;2023-04-15T00:13:28;8.70;99.90
15341;DHT22;7770;52.158;5.372;2023-04-15T00:16:14;8.70;99.90
15341;DHT22;7770;52.158;5.372;2023-04-15T00:19:00;8.60;99.90
15341;DHT22;7770;52.158;5.372;2023-04-15T00:21:47;8.60;99.90
15341;DHT22;7770;52.158;5.372;2023-04-15T00:24:33;8.60;99.90
15341;DHT22;7770;52.158;5.372;2023-04-15T00:27:19;8.60;99.90
15341;DHT22;7770;52.158;5.372;2023-04-15T00:30:06;8.60;99.90
15341;DHT22;7770;52.158;5.372;2023-04-15T00:32:52;8.60;99.90
15341;DHT22;7770;52.158;5.372;2023-04-15T00:35:38;8.60;99.90
15341;DHT22;7770;52.158;5.372;2023-04-15T00:38:24;8.60;99.90
15341;DHT22;7770;52.158;5.372;2023-04-15T00:41:10;8.60;99.90
15341;DHT22;7770;52.158;5.372;2023-04-15T00:43:57;8.60;99.90
15341;DHT22;7770;52.158;5.372;2023-04-15T00:46:44;8.60;99.90
15341;DHT22;7770;52.158;5.372;2023-04-15T00:49:31;8.50;99.90
15341;DHT22;7770;52.158;5.372;2023-04-15T00:52:17;8.50;99.90
15341;DHT22;7770;52.158;5.372;2023-04-15T00:55:04;8.40;99.90
15341;DHT22;7770;52.158;5.372;2023-04-15T00:57:51;8.30;99.90
15341;DHT22;7770;52.158;5.372;2023-04-15T01:00:37;8.20;99.90
15341;DHT22;7770;52.158;5.372;2023-04-15T01:03:24;8.20;99.90
15341;DHT22;7770;52.158;5.372;2023-04-15T01:06:10;8.10;99.90
15341;DHT22;7770;52.158;5.372;2023-04-15T01:08:56;8.10;99.90
15341;DHT22;7770;52.158;5.372;2023-04-15T01:11:43;8.00;99.90
15341;DHT22;7770;52.158;5.372;2023-04-15T01:14:29;8.00;99.90
15341;DHT22;7770;52.158;5.372;2023-04-15T01:17:16;8.00;99.90
15341;DHT22;7770;52.158;5.372;2023-04-15T01:20:02;8.00;99.90
15341;DHT22;7770;52.158;5.372;2023-04-15T01:22:50;7.90;99.90
15341;DHT22;7770;52.158;5.372;2023-04-15T01:25:36;8.00;99.90
15341;DHT22;7770;52.158;5.372;2023-04-15T01:28:23;7.90;99.90
15341;DHT22;7770;52.158;5.372;2023-04-15T01:31:10;7.80;99.90
15341;DHT22;7770;52.158;5.372;2023-04-15T01:33:58;7.70;99.90
15341;DHT22;7770;52.158;5.372;2023-04-15T01:36:44;7.90;99.90
15341;DHT22;7770;52.158;5.372;2023-04-15T01:39:31;8.00;99.90
15341;DHT22;7770;52.158;5.372;2023-04-15T01:42:16;8.10;99.90
15341;DHT22;7770;52.158;5.372;2023-04-15T01:45:03;8.00;99.90
15341;DHT22;7770;52.158;5.372;2023-04-15T01:47:49;7.90;99.90
15341;DHT22;7770;52.158;5.372;2023-04-15T01:50:35;8.00;99.90
15341;DHT22;7770;52.158;5.372;2023-04-15T01:53:23;7.90;99.90
15341;DHT22;7770;52.158;5.372;2023-04-15T01:56:10;7.90;99.90
15341;DHT22;7770;52.158;5.372;2023-04-15T01:58:56;7.90;99.90
15341;DHT22;7770;52.158;5.372;2023-04-15T02:01:42;7.80;99.90
15341;DHT22;7770;52.158;5.372;2023-04-15T02:04:29;7.70;99.90
15341;DHT22;7770;52.158;5.372;2023-04-15T02:07:16;7.70;99.90
15341;DHT22;7770;52.158;5.372;2023-04-15T02:10:02;7.70;99.90
15341;DHT22;7770;52.158;5.372;2023-04-15T02:12:48;7.60;99.90
15341;DHT22;7770;52.158;5.372;2023-04-15T02:15:34;7.50;99.90
15341;DHT22;7770;52.158;5.372;2023-04-15T02:18:20;7.50;99.90
15341;DHT22;7770;52.158;5.372;2023-04-15T02:21:06;7.40;99.90
15341;DHT22;7770;52.158;5.372;2023-04-15T02:23:52;7.30;99.90
15341;DHT22;7770;52.158;5.372;2023-04-15T02:26:38;7.40;99.90
15341;DHT22;7770;52.158;5.372;2023-04-15T02:29:24;7.40;99.90
15341;DHT22;7770;52.158;5.372;2023-04-15T02:32:11;7.30;99.90
15341;DHT22;7770;52.158;5.372;2023-04-15T02:35:07;7.30;99.90
15341;DHT22;7770;52.158;5.372;2023-04-15T02:37:53;7.20;99.90
15341;DHT22;7770;52.158;5.372;2023-04-15T02:40:40;7.20;99.90
15341;DHT22;7770;52.158;5.372;2023-04-15T02:43:26;7.20;99.90
15341;DHT22;7770;52.158;5.372;2023-04-15T02:46:12;7.10;99.90
15341;DHT22;7770;52.158;5.372;2023-04-15T02:48:59;7.10;99.90
15341;DHT22;7770;52.158;5.372;2023-04-15T02:51:45;7.10;99.90
15341;DHT22;7770;52.158;5.372;2023-04-15T02:54:34;7.00;99.90
15341;DHT22;7770;52.158;5.372;2023-04-15T02:57:20;6.90;99.90
15341;DHT22;7770;52.158;5.372;2023-04-15T03:00:07;7.00;99.90
15341;DHT22;7770;52.158;5.372;2023-04-15T03:03:02;7.10;99.90
15341;DHT22;7770;52.158;5.372;2023-04-15T03:05:49;7.00;99.90
15341;DHT22;7770;52.158;5.372;2023-04-15T03:08:35;6.90;99.90
15341;DHT22;7770;52.158;5.372;2023-04-15T03:11:21;6.90;99.90
15341;DHT22;7770;52.158;5.372;2023-04-15T03:14:07;6.90;99.90
15341;DHT22;7770;52.158;5.372;2023-04-15T03:16:53;6.80;99.90
15341;DHT22;7770;52.158;5.372;2023-04-15T03:19:39;6.80;99.90
15341;DHT22;7770;52.158;5.372;2023-04-15T03:22:25;6.80;99.90
15341;DHT22;7770;52.158;5.372;2023-04-15T03:25:11;6.70;99.90
15341;DHT22;7770;52.158;5.372;2023-04-15T03:27:59;6.70;99.90
15341;DHT22;7770;52.158;5.372;2023-04-15T03:30:45;6.70;99.90
15341;DHT22;7770;52.158;5.372;2023-04-15T03:33:31;6.70;99.90
15341;DHT22;7770;52.158;5.372;2023-04-15T03:36:17;6.60;99.90
15341;DHT22;7770;52.158;5.372;2023-04-15T03:39:03;6.60;99.90
15341;DHT22;7770;52.158;5.372;2023-04-15T03:41:49;6.60;99.90
15341;DHT22;7770;52.158;5.372;2023-04-15T03:44:35;6.60;99.90
15341;DHT22;7770;52.158;5.372;2023-04-15T03:47:22;6.60;99.90
15341;DHT22;7770;52.158;5.372;2023-04-15T03:50:08;6.50;99.90
15341;DHT22;7770;52.158;5.372;2023-04-15T03:52:54;6.40;99.90
15341;DHT22;7770;52.158;5.372;2023-04-15T03:55:41;6.40;99.90
15341;DHT22;7770;52.158;5.372;2023-04-15T03:58:27;6.30;99.90
15341;DHT22;7770;52.158;5.372;2023-04-15T04:01:13;6.30;99.90
15341;DHT22;7770;52.158;5.372;2023-04-15T04:03:59;6.30;99.90
15341;DHT22;7770;52.158;5.372;2023-04-15T04:06:45;6.30;99.90
15341;DHT22;7770;52.158;5.372;2023-04-15T04:09:31;6.20;99.90
15341;DHT22;7770;52.158;5.372;2023-04-15T04:12:17;6.20;99.90
15341;DHT22;7770;52.158;5.372;2023-04-15T04:15:04;6.20;99.90
15341;DHT22;7770;52.158;5.372;2023-04-15T04:17:50;6.20;99.90
15341;DHT22;7770;52.158;5.372;2023-04-15T04:20:37;6.10;99.90
15341;DHT22;7770;52.158;5.372;2023-04-15T04:23:23;6.10;99.90
15341;DHT22;7770;52.158;5.372;2023-04-15T04:26:09;6.00;99.90
15341;DHT22;7770;52.158;5.372;2023-04-15T04:28:55;5.90;99.90
15341;DHT22;7770;52.158;5.372;2023-04-15T04:31:41;5.90;99.90
15341;DHT22;7770;52.158;5.372;2023-04-15T04:34:27;5.80;99.90
15341;DHT22;7770;52.158;5.372;2023-04-15T04:37:13;5.70;99.90
15341;DHT22;7770;52.158;5.372;2023-04-15T04:39:59;5.60;99.90
15341;DHT22;7770;52.158;5.372;2023-04-15T04:42:45;5.60;99.90
15341;DHT22;7770;52.158;5.372;2023-04-15T04:45:31;5.50;99.90
15341;DHT22;7770;52.158;5.372;2023-04-15T04:48:17;5.40;99.90
15341;DHT22;7770;52.158;5.372;2023-04-15T04:51:03;5.40;99.90
15341;DHT22;7770;52.158;5.372;2023-04-15T04:53:49;5.30;99.90
15341;DHT22;7770;52.158;5.372;2023-04-15T04:56:35;5.30;99.90
15341;DHT22;7770;52.158;5.372;2023-04-15T04:59:23;5.30;99.90
15341;DHT22;7770;52.158;5.372;2023-04-15T05:02:09;5.20;99.90
15341;DHT22;7770;52.158;5.372;2023-04-15T05:04:55;5.20;99.90
15341;DHT22;7770;52.158;5.372;2023-04-15T05:07:41;5.20;99.90
15341;DHT22;7770;52.158;5.372;2023-04-15T05:10:27;5.30;99.90
15341;DHT22;7770;52.158;5.372;2023-04-15T05:13:13;5.40;99.90
15341;DHT22;7770;52.158;5.372;2023-04-15T05:15:59;5.40;99.90
15341;DHT22;7770;52.158;5.372;2023-04-15T05:18:45;5.40;99.90
15341;DHT22;7770;52.158;5.372;2023-04-15T05:21:32;5.50;99.90
15341;DHT22;7770;52.158;5.372;2023-04-15T05:24:18;5.50;99.90
15341;DHT22;7770;52.158;5.372;2023-04-15T05:27:04;5.50;99.90
15341;DHT22;7770;52.158;5.372;2023-04-15T05:29:50;5.60;99.90
15341;DHT22;7770;52.158;5.372;2023-04-15T05:32:36;5.70;99.90
15341;DHT22;7770;52.158;5.372;2023-04-15T05:35:22;5.90;99.90
15341;DHT22;7770;52.158;5.372;2023-04-15T05:38:08;6.20;99.90
15341;DHT22;7770;52.158;5.372;2023-04-15T05:40:54;6.40;99.90
15341;DHT22;7770;52.158;5.372;2023-04-15T05:43:40;6.60;99.90
15341;DHT22;7770;52.158;5.372;2023-04-15T05:46:26;6.80;99.90
15341;DHT22;7770;52.158;5.372;2023-04-15T05:49:12;6.80;99.90
15341;DHT22;7770;52.158;5.372;2023-04-15T05:51:58;6.70;99.90
15341;DHT22;7770;52.158;5.372;2023-04-15T05:54:45;6.60;99.90
15341;DHT22;7770;52.158;5.372;2023-04-15T05:57:31;6.50;99.90
15341;DHT22;7770;52.158;5.372;2023-04-15T06:00:17;6.50;99.90
15341;DHT22;7770;52.158;5.372;2023-04-15T06:03:03;6.50;99.90
15341;DHT22;7770;52.158;5.372;2023-04-15T06:05:50;6.50;99.90
15341;DHT22;7770;52.158;5.372;2023-04-15T06:08:36;6.50;99.90
15341;DHT22;7770;52.158;5.372;2023-04-15T06:11:23;6.60;99.90
15341;DHT22;7770;52.158;5.372;2023-04-15T06:14:09;6.60;99.90
15341;DHT22;7770;52.158;5.372;2023-04-15T06:16:55;6.70;99.90
15341;DHT22;7770;52.158;5.372;2023-04-15T06:19:41;6.80;99.90
15341;DHT22;7770;52.158;5.372;2023-04-15T06:22:27;7.00;99.90
15341;DHT22;7770;52.158;5.372;2023-04-15T06:25:13;7.20;99.90
15341;DHT22;7770;52.158;5.372;2023-04-15T06:27:59;7.40;99.90
15341;DHT22;7770;52.158;5.372;2023-04-15T06:30:45;7.70;99.90
15341;DHT22;7770;52.158;5.372;2023-04-15T06:33:31;8.20;99.90
15341;DHT22;7770;52.158;5.372;2023-04-15T06:36:18;8.70;99.90
15341;DHT22;7770;52.158;5.372;2023-04-15T06:39:04;9.40;99.90
15341;DHT22;7770;52.158;5.372;2023-04-15T06:41:50;9.80;99.90
15341;DHT22;7770;52.158;5.372;2023-04-15T06:44:37;10.10;99.90
15341;DHT22;7770;52.158;5.372;2023-04-15T06:47:23;10.10;99.90
15341;DHT22;7770;52.158;5.372;2023-04-15T06:50:09;10.20;99.90
15341;DHT22;7770;52.158;5.372;2023-04-15T06:52:56;10.40;99.90
15341;DHT22;7770;52.158;5.372;2023-04-15T06:55:42;10.40;99.90
15341;DHT22;7770;52.158;5.372;2023-04-15T06:58:28;10.50;99.90
15341;DHT22;7770;52.158;5.372;2023-04-15T07:01:14;10.50;99.90
15341;DHT22;7770;52.158;5.372;2023-04-15T07:04:00;10.50;99.90
15341;DHT22;7770;52.158;5.372;2023-04-15T07:06:46;11.00;99.90
15341;DHT22;7770;52.158;5.372;2023-04-15T07:09:32;11.60;99.90
15341;DHT22;7770;52.158;5.372;2023-04-15T07:12:19;12.20;99.90
15341;DHT22;7770;52.158;5.372;2023-04-15T07:15:05;12.30;99.90
15341;DHT22;7770;52.158;5.372;2023-04-15T07:17:52;12.50;99.90
15341;DHT22;7770;52.158;5.372;2023-04-15T07:20:38;12.70;99.90
15341;DHT22;7770;52.158;5.372;2023-04-15T07:23:24;12.70;99.90
15341;DHT22;7770;52.158;5.372;2023-04-15T07:26:10;12.70;99.90
15341;DHT22;7770;52.158;5.372;2023-04-15T07:28:56;12.70;99.90
15341;DHT22;7770;52.158;5.372;2023-04-15T07:31:42;12.60;99.90
15341;DHT22;7770;52.158;5.372;2023-04-15T07:34:28;13.10;99.90
15341;DHT22;7770;52.158;5.372;2023-04-15T07:37:14;13.70;99.90
15341;DHT22;7770;52.158;5.372;2023-04-15T07:40:01;13.80;99.90
15341;DHT22;7770;52.158;5.372;2023-04-15T07:42:49;14.00;99.90
15341;DHT22;7770;52.158;5.372;2023-04-15T07:45:36;14.50;99.90
15341;DHT22;7770;52.158;5.372;2023-04-15T07:48:22;14.20;99.90
15341;DHT22;7770;52.158;5.372;2023-04-15T07:51:08;14.00;99.90
15341;DHT22;7770;52.158;5.372;2023-04-15T07:53:55;14.50;99.90
15341;DHT22;7770;52.158;5.372;2023-04-15T07:56:41;15.50;99.90
15341;DHT22;7770;52.158;5.372;2023-04-15T07:59:27;15.30;99.70
15341;DHT22;7770;52.158;5.372;2023-04-15T08:02:14;14.70;99.90
15341;DHT22;7770;52.158;5.372;2023-04-15T08:05:00;15.50;99.30
15341;DHT22;7770;52.158;5.372;2023-04-15T08:07:48;16.30;98.10
15341;DHT22;7770;52.158;5.372;2023-04-15T08:10:36;17.30;96.20
15341;DHT22;7770;52.158;5.372;2023-04-15T08:13:22;17.20;96.40
15341;DHT22;7770;52.158;5.372;2023-04-15T08:16:22;16.90;95.70
15341;DHT22;7770;52.158;5.372;2023-04-15T08:19:09;16.30;96.80
15341;DHT22;7770;52.158;5.372;2023-04-15T08:21:55;17.20;95.70
15341;DHT22;7770;52.158;5.372;2023-04-15T08:24:41;17.40;94.80
15341;DHT22;7770;52.158;5.372;2023-04-15T08:27:27;16.20;95.60
15341;DHT22;7770;52.158;5.372;2023-04-15T08:30:13;15.50;96.80
15341;DHT22;7770;52.158;5.372;2023-04-15T08:32:59;15.50;97.30
15341;DHT22;7770;52.158;5.372;2023-04-15T08:35:47;17.00;95.80
15341;DHT22;7770;52.158;5.372;2023-04-15T08:38:34;17.00;95.40
15341;DHT22;7770;52.158;5.372;2023-04-15T08:41:21;18.00;94.60
15341;DHT22;7770;52.158;5.372;2023-04-15T08:44:11;19.00;94.20
15341;DHT22;7770;52.158;5.372;2023-04-15T08:47:02;17.80;94.40
15341;DHT22;7770;52.158;5.372;2023-04-15T08:49:50;18.00;95.00
15341;DHT22;7770;52.158;5.372;2023-04-15T08:52:38;18.50;93.70
15341;DHT22;7770;52.158;5.372;2023-04-15T08:55:32;16.40;95.70
15341;DHT22;7770;52.158;5.372;2023-04-15T08:58:20;17.30;95.40
15341;DHT22;7770;52.158;5.372;2023-04-15T09:01:06;17.90;94.70
15341;DHT22;7770;52.158;5.372;2023-04-15T09:03:53;18.20;93.90
15341;DHT22;7770;52.158;5.372;2023-04-15T09:06:39;17.70;94.00
15341;DHT22;7770;52.158;5.372;2023-04-15T09:09:26;17.60;94.50
15341;DHT22;7770;52.158;5.372;2023-04-15T09:12:12;18.10;95.10
15341;DHT22;7770;52.158;5.372;2023-04-15T09:14:58;18.90;93.40
15341;DHT22;7770;52.158;5.372;2023-04-15T09:17:46;19.10;93.50
15341;DHT22;7770;52.158;5.372;2023-04-15T09:20:40;20.30;91.90
15341;DHT22;7770;52.158;5.372;2023-04-15T09:23:27;20.70;91.50
15341;DHT22;7770;52.158;5.372;2023-04-15T09:26:15;20.70;91.30
15341;DHT22;7770;52.158;5.372;2023-04-15T09:29:09;21.10;90.90
15341;DHT22;7770;52.158;5.372;2023-04-15T09:32:12;21.30;90.50
15341;DHT22;7770;52.158;5.372;2023-04-15T09:35:10;21.70;91.10
15341;DHT22;7770;52.158;5.372;2023-04-15T09:38:08;22.20;90.20
15341;DHT22;7770;52.158;5.372;2023-04-15T09:40:54;22.20;88.40
15341;DHT22;7770;52.158;5.372;2023-04-15T09:43:40;22.00;90.20
15341;DHT22;7770;52.158;5.372;2023-04-15T09:46:43;21.90;90.40
15341;DHT22;7770;52.158;5.372;2023-04-15T09:49:29;21.50;90.00
15341;DHT22;7770;52.158;5.372;2023-04-15T09:52:15;20.80;91.30
15341;DHT22;7770;52.158;5.372;2023-04-15T09:55:01;20.10;91.10
15341;DHT22;7770;52.158;5.372;2023-04-15T09:57:48;19.60;92.30
15341;DHT22;7770;52.158;5.372;2023-04-15T10:00:35;19.40;92.80
15341;DHT22;7770;52.158;5.372;2023-04-15T10:03:27;18.50;93.80
15341;DHT22;7770;52.158;5.372;2023-04-15T10:06:14;18.20;93.60
15341;DHT22;7770;52.158;5.372;2023-04-15T10:09:01;18.70;93.40
15341;DHT22;7770;52.158;5.372;2023-04-15T10:11:48;19.40;93.60
15341;DHT22;7770;52.158;5.372;2023-04-15T10:14:35;19.50;92.90
15341;DHT22;7770;52.158;5.372;2023-04-15T10:17:28;19.50;92.70
15341;DHT22;7770;52.158;5.372;2023-04-15T10:20:18;19.30;93.30
15341;DHT22;7770;52.158;5.372;2023-04-15T10:23:06;19.70;93.20
15341;DHT22;7770;52.158;5.372;2023-04-15T10:25:53;19.60;93.30
15341;DHT22;7770;52.158;5.372;2023-04-15T10:28:40;18.60;94.00
15341;DHT22;7770;52.158;5.372;2023-04-15T10:31:26;19.10;94.30
15341;DHT22;7770;52.158;5.372;2023-04-15T10:34:13;20.10;93.00
15341;DHT22;7770;52.158;5.372;2023-04-15T10:37:01;20.40;92.40
15341;DHT22;7770;52.158;5.372;2023-04-15T10:39:50;20.40;92.20
15341;DHT22;7770;52.158;5.372;2023-04-15T10:42:36;20.30;91.50
15341;DHT22;7770;52.158;5.372;2023-04-15T10:45:25;19.90;92.00
15341;DHT22;7770;52.158;5.372;2023-04-15T10:48:17;20.20;92.00
15341;DHT22;7770;52.158;5.372;2023-04-15T10:51:04;19.40;92.20
15341;DHT22;7770;52.158;5.372;2023-04-15T10:53:50;18.80;93.10
15341;DHT22;7770;52.158;5.372;2023-04-15T10:56:42;19.60;92.00
15341;DHT22;7770;52.158;5.372;2023-04-15T10:59:35;18.70;93.00
15341;DHT22;7770;52.158;5.372;2023-04-15T11:05:52;18.90;93.10
15341;DHT22;7770;52.158;5.372;2023-04-15T11:08:58;18.50;94.10
15341;DHT22;7770;52.158;5.372;2023-04-15T11:12:06;17.60;95.10
15341;DHT22;7770;52.158;5.372;2023-04-15T11:14:53;16.70;95.90
15341;DHT22;7770;52.158;5.372;2023-04-15T11:17:39;16.70;96.20
15341;DHT22;7770;52.158;5.372;2023-04-15T11:20:25;17.10;95.70
15341;DHT22;7770;52.158;5.372;2023-04-15T11:23:19;17.10;95.30
15341;DHT22;7770;52.158;5.372;2023-04-15T11:26:13;17.80;94.80
15341;DHT22;7770;52.158;5.372;2023-04-15T11:28:59;18.60;93.20
15341;DHT22;7770;52.158;5.372;2023-04-15T11:31:46;19.00;93.40
15341;DHT22;7770;52.158;5.372;2023-04-15T11:34:34;18.40;93.70
15341;DHT22;7770;52.158;5.372;2023-04-15T11:37:27;19.30;93.60
15341;DHT22;7770;52.158;5.372;2023-04-15T11:40:24;19.40;92.70
15341;DHT22;7770;52.158;5.372;2023-04-15T11:43:16;19.80;92.70
15341;DHT22;7770;52.158;5.372;2023-04-15T11:46:05;19.60;92.70
15341;DHT22;7770;52.158;5.372;2023-04-15T11:48:51;20.00;92.80
15341;DHT22;7770;52.158;5.372;2023-04-15T11:51:37;19.60;93.90
15341;DHT22;7770;52.158;5.372;2023-04-15T11:54:23;19.60;93.30
15341;DHT22;7770;52.158;5.372;2023-04-15T11:57:09;19.10;93.60
15341;DHT22;7770;52.158;5.372;2023-04-15T11:59:55;18.30;94.80
15341;DHT22;7770;52.158;5.372;2023-04-15T12:02:42;18.20;95.30
15341;DHT22;7770;52.158;5.372;2023-04-15T12:05:28;17.90;95.10
15341;DHT22;7770;52.158;5.372;2023-04-15T12:08:14;17.90;94.90
15341;DHT22;7770;52.158;5.372;2023-04-15T12:11:00;17.70;94.90
15341;DHT22;7770;52.158;5.372;2023-04-15T12:13:48;17.50;95.20
15341;DHT22;7770;52.158;5.372;2023-04-15T12:16:36;17.00;95.80
15341;DHT22;7770;52.158;5.372;2023-04-15T12:19:26;16.90;95.40
15341;DHT22;7770;52.158;5.372;2023-04-15T12:22:15;16.70;95.60
15341;DHT22;7770;52.158;5.372;2023-04-15T12:25:02;16.80;95.70
15341;DHT22;7770;52.158;5.372;2023-04-15T12:27:51;16.90;96.20
15341;DHT22;7770;52.158;5.372;2023-04-15T12:30:48;17.00;96.00
15341;DHT22;7770;52.158;5.372;2023-04-15T12:33:36;16.90;95.50
15341;DHT22;7770;52.158;5.372;2023-04-15T12:36:23;17.20;96.20
15341;DHT22;7770;52.158;5.372;2023-04-15T12:39:09;17.20;96.30
15341;DHT22;7770;52.158;5.372;2023-04-15T12:41:55;17.00;96.20
15341;DHT22;7770;52.158;5.372;2023-04-15T12:44:41;16.20;97.70
15341;DHT22;7770;52.158;5.372;2023-04-15T12:47:27;16.10;97.20
15341;DHT22;7770;52.158;5.372;2023-04-15T12:50:13;16.00;97.60
15341;DHT22;7770;52.158;5.372;2023-04-15T12:52:59;16.20;97.50
15341;DHT22;7770;52.158;5.372;2023-04-15T12:55:45;16.00;97.30
15341;DHT22;7770;52.158;5.372;2023-04-15T12:58:31;15.90;97.70
15341;DHT22;7770;52.158;5.372;2023-04-15T13:01:18;16.20;97.90
15341;DHT22;7770;52.158;5.372;2023-04-15T13:04:04;15.90;98.20
15341;DHT22;7770;52.158;5.372;2023-04-15T13:06:50;15.00;99.30
15341;DHT22;7770;52.158;5.372;2023-04-15T13:09:36;14.90;99.60
15341;DHT22;7770;52.158;5.372;2023-04-15T13:12:22;15.10;99.40
15341;DHT22;7770;52.158;5.372;2023-04-15T13:15:09;15.30;99.90
15341;DHT22;7770;52.158;5.372;2023-04-15T13:17:56;15.60;99.40
15341;DHT22;7770;52.158;5.372;2023-04-15T13:20:42;15.10;99.60
15341;DHT22;7770;52.158;5.372;2023-04-15T13:23:28;15.10;99.90
15341;DHT22;7770;52.158;5.372;2023-04-15T13:26:14;15.00;99.90
15341;DHT22;7770;52.158;5.372;2023-04-15T13:29:00;14.80;99.90
15341;DHT22;7770;52.158;5.372;2023-04-15T13:31:46;14.80;99.90
15341;DHT22;7770;52.158;5.372;2023-04-15T13:34:32;14.70;99.90
15341;DHT22;7770;52.158;5.372;2023-04-15T13:37:18;14.60;99.90
15341;DHT22;7770;52.158;5.372;2023-04-15T13:40:05;14.50;99.90
15341;DHT22;7770;52.158;5.372;2023-04-15T13:42:52;14.60;99.90
15341;DHT22;7770;52.158;5.372;2023-04-15T13:45:38;14.60;99.90
15341;DHT22;7770;52.158;5.372;2023-04-15T13:48:24;14.60;99.90
15341;DHT22;7770;52.158;5.372;2023-04-15T13:51:10;14.20;99.90
15341;DHT22;7770;52.158;5.372;2023-04-15T13:53:56;14.20;99.90
15341;DHT22;7770;52.158;5.372;2023-04-15T13:56:42;14.00;99.90
15341;DHT22;7770;52.158;5.372;2023-04-15T13:59:28;13.80;99.90
15341;DHT22;7770;52.158;5.372;2023-04-15T14:02:14;13.70;99.90
15341;DHT22;7770;52.158;5.372;2023-04-15T14:05:00;13.90;99.90
15341;DHT22;7770;52.158;5.372;2023-04-15T14:07:47;14.00;99.90
15341;DHT22;7770;52.158;5.372;2023-04-15T14:10:33;13.70;99.90
15341;DHT22;7770;52.158;5.372;2023-04-15T14:13:20;13.60;99.90
15341;DHT22;7770;52.158;5.372;2023-04-15T14:16:06;13.30;99.90
15341;DHT22;7770;52.158;5.372;2023-04-15T14:18:52;13.00;99.90
15341;DHT22;7770;52.158;5.372;2023-04-15T14:21:38;12.80;99.90
15341;DHT22;7770;52.158;5.372;2023-04-15T14:24:24;12.50;99.90
15341;DHT22;7770;52.158;5.372;2023-04-15T14:27:11;12.20;99.90
15341;DHT22;7770;52.158;5.372;2023-04-15T14:29:57;12.20;99.90
15341;DHT22;7770;52.158;5.372;2023-04-15T14:32:43;12.20;99.90
15341;DHT22;7770;52.158;5.372;2023-04-15T14:35:29;12.10;99.90
15341;DHT22;7770;52.158;5.372;2023-04-15T14:38:15;12.20;99.90
15341;DHT22;7770;52.158;5.372;2023-04-15T14:41:01;12.40;99.90
15341;DHT22;7770;52.158;5.372;2023-04-15T14:43:47;12.50;99.90
15341;DHT22;7770;52.158;5.372;2023-04-15T14:46:34;12.70;99.90
15341;DHT22;7770;52.158;5.372;2023-04-15T14:49:20;12.80;99.90
15341;DHT22;7770;52.158;5.372;2023-04-15T14:52:06;12.80;99.90
15341;DHT22;7770;52.158;5.372;2023-04-15T14:54:52;12.80;99.90
15341;DHT22;7770;52.158;5.372;2023-04-15T14:57:39;12.20;99.90
15341;DHT22;7770;52.158;5.372;2023-04-15T15:00:26;11.90;99.90
15341;DHT22;7770;52.158;5.372;2023-04-15T15:03:12;11.80;99.90
15341;DHT22;7770;52.158;5.372;2023-04-15T15:05:58;11.90;99.90
15341;DHT22;7770;52.158;5.372;2023-04-15T15:08:45;12.00;99.90
15341;DHT22;7770;52.158;5.372;2023-04-15T15:11:31;11.90;99.90
15341;DHT22;7770;52.158;5.372;2023-04-15T15:14:17;11.90;99.90
15341;DHT22;7770;52.158;5.372;2023-04-15T15:17:03;11.80;99.90
15341;DHT22;7770;52.158;5.372;2023-04-15T15:19:49;11.70;99.90
15341;DHT22;7770;52.158;5.372;2023-04-15T15:22:35;11.50;99.90
15341;DHT22;7770;52.158;5.372;2023-04-15T15:25:21;11.50;99.90
15341;DHT22;7770;52.158;5.372;2023-04-15T15:28:07;11.40;99.90
15341;DHT22;7770;52.158;5.372;2023-04-15T15:30:53;11.30;99.90
15341;DHT22;7770;52.158;5.372;2023-04-15T15:33:40;11.10;99.90
15341;DHT22;7770;52.158;5.372;2023-04-15T15:36:26;11.00;99.90
15341;DHT22;7770;52.158;5.372;2023-04-15T15:39:12;10.90;99.90
15341;DHT22;7770;52.158;5.372;2023-04-15T15:41:58;10.90;99.90
15341;DHT22;7770;52.158;5.372;2023-04-15T15:44:44;10.90;99.90
15341;DHT22;7770;52.158;5.372;2023-04-15T15:47:30;11.00;99.90
15341;DHT22;7770;52.158;5.372;2023-04-15T15:50:16;10.80;99.90
15341;DHT22;7770;52.158;5.372;2023-04-15T15:53:02;10.80;99.90
15341;DHT22;7770;52.158;5.372;2023-04-15T15:55:48;10.70;99.90
15341;DHT22;7770;52.158;5.372;2023-04-15T15:58:34;10.70;99.90
15341;DHT22;7770;52.158;5.372;2023-04-15T16:01:21;10.60;99.90
15341;DHT22;7770;52.158;5.372;2023-04-15T16:04:07;10.50;99.90
15341;DHT22;7770;52.158;5.372;2023-04-15T16:06:53;10.60;99.90
15341;DHT22;7770;52.158;5.372;2023-04-15T16:09:39;10.50;99.90
15341;DHT22;7770;52.158;5.372;2023-04-15T16:12:25;10.50;99.90
15341;DHT22;7770;52.158;5.372;2023-04-15T16:15:11;10.30;99.90
15341;DHT22;7770;52.158;5.372;2023-04-15T16:17:58;10.10;99.90
15341;DHT22;7770;52.158;5.372;2023-04-15T16:20:44;10.20;99.90
15341;DHT22;7770;52.158;5.372;2023-04-15T16:23:30;10.20;99.90
15341;DHT22;7770;52.158;5.372;2023-04-15T16:26:16;10.40;99.90
15341;DHT22;7770;52.158;5.372;2023-04-15T16:29:03;10.20;99.90
15341;DHT22;7770;52.158;5.372;2023-04-15T16:31:49;10.30;99.90
15341;DHT22;7770;52.158;5.372;2023-04-15T16:34:35;10.20;99.90
15341;DHT22;7770;52.158;5.372;2023-04-15T16:37:23;10.20;99.90
15341;DHT22;7770;52.158;5.372;2023-04-15T16:40:10;10.10;99.90
15341;DHT22;7770;52.158;5.372;2023-04-15T16:42:56;10.00;99.90
15341;DHT22;7770;52.158;5.372;2023-04-15T16:45:42;9.90;99.90
15341;DHT22;7770;52.158;5.372;2023-04-15T16:48:29;10.00;99.90
15341;DHT22;7770;52.158;5.372;2023-04-15T16:51:16;10.00;99.90
15341;DHT22;7770;52.158;5.372;2023-04-15T16:54:02;9.90;99.90
15341;DHT22;7770;52.158;5.372;2023-04-15T16:56:48;9.80;99.90
15341;DHT22;7770;52.158;5.372;2023-04-15T16:59:34;9.90;99.90
15341;DHT22;7770;52.158;5.372;2023-04-15T17:02:20;9.80;99.90
15341;DHT22;7770;52.158;5.372;2023-04-15T17:05:06;9.80;99.90
15341;DHT22;7770;52.158;5.372;2023-04-15T17:07:53;9.80;99.90
15341;DHT22;7770;52.158;5.372;2023-04-15T17:10:39;9.80;99.90
15341;DHT22;7770;52.158;5.372;2023-04-15T17:13:25;9.80;99.90
15341;DHT22;7770;52.158;5.372;2023-04-15T17:16:11;9.80;99.90
15341;DHT22;7770;52.158;5.372;2023-04-15T17:18:57;9.80;99.90
15341;DHT22;7770;52.158;5.372;2023-04-15T17:21:43;9.80;99.90
15341;DHT22;7770;52.158;5.372;2023-04-15T17:24:29;9.70;99.90
15341;DHT22;7770;52.158;5.372;2023-04-15T17:27:15;9.70;99.90
15341;DHT22;7770;52.158;5.372;2023-04-15T17:30:02;9.70;99.90
15341;DHT22;7770;52.158;5.372;2023-04-15T17:32:48;9.70;99.90
15341;DHT22;7770;52.158;5.372;2023-04-15T17:35:37;9.60;99.90
15341;DHT22;7770;52.158;5.372;2023-04-15T17:38:23;9.60;99.90
15341;DHT22;7770;52.158;5.372;2023-04-15T17:41:09;9.60;99.90
15341;DHT22;7770;52.158;5.372;2023-04-15T17:43:55;9.60;99.90
15341;DHT22;7770;52.158;5.372;2023-04-15T17:46:41;9.50;99.90
15341;DHT22;7770;52.158;5.372;2023-04-15T17:49:27;9.50;99.90
15341;DHT22;7770;52.158;5.372;2023-04-15T17:52:15;9.50;99.90
15341;DHT22;7770;52.158;5.372;2023-04-15T17:55:01;9.50;99.90
15341;DHT22;7770;52.158;5.372;2023-04-15T17:57:47;9.60;99.90
15341;DHT22;7770;52.158;5.372;2023-04-15T18:00:33;9.60;99.90
15341;DHT22;7770;52.158;5.372;2023-04-15T18:03:19;9.50;99.90